Accueil
METAR-TAF:

METAR-TAF

Aéroports :

Kushiro, Japon

latitude: 43-02N, longitude: 144-12E, altitude: 95 m

Observation

Le bulletin a été fait il y a 28 minutes, à 11:00 UTC
Vent 2 kt de ouest/sud-ouest
Température 16°C
Humidité 94%
Pression 1011 hPa
Visibilité 10 km ou plus
Quelques nuages à une hauteur de 3000 ft

METAR: RJCK 191100Z 25002KT 9999 FEW030 16/15 Q1011

Heure: 20:28 (11:28 UTC)

Prévision

Le bulletin a été fait il y a 6 heures et 21 minutes, à 05:07 UTC
Prévision valable du 19 à 06 UTC au 20 à 12 UTC
Vent 7 kt de sud-ouest
Visibilité 10 km ou plus
Quelques nuages à une hauteur de 2000 ft
Nuages fragmentés à une hauteur de 4000 ft
Temporairement
du 19 à 15 UTC au 19 à 21 UTC
Visibilité: 4000 m
Quelques nuages à une hauteur de 300 ft
Nuages fragmentés à une hauteur de 600 ft
faibles averses de pluie, brume

TAF: RJCK 190507Z 1906/2012 23007KT 9999 FEW020 BKN040 TEMPO 1915/1921 4000 -SHRA BR FEW003 BKN006

Observations et prévisions météorologiques de plus de 4000 aéroports (messages METAR et TAF).

Les stations disponibles sont représentées par des disques jaunes et rouges sur la carte.

Passer la souris dessus pour voir le nom de la station.

Cliquer dessus pour voir les observations et prévisions météorologiques.

Pour changer de carte: cliquez sur les boutons verts avec une croix noire pour zoomer, sur le bouton vert avec un tiret pour effectuer un zoom arrière, ou sur les flèches vertes pour les cartes adjacentes.


METAR-TAF: